sensor_id;sensor_type;location;lat;lon;timestamp;P1;durP1;ratioP1;P2;durP2;ratioP2
31206;SDS011;17834;52.992;8.856;2023-01-06T00:00:38;39.78;;;13.77;;
31206;SDS011;17834;52.992;8.856;2023-01-06T00:03:04;40.22;;;13.55;;
31206;SDS011;17834;52.992;8.856;2023-01-06T00:05:30;45.60;;;13.85;;
31206;SDS011;17834;52.992;8.856;2023-01-06T00:07:56;36.10;;;13.15;;
31206;SDS011;17834;52.992;8.856;2023-01-06T00:10:22;41.17;;;13.82;;
31206;SDS011;17834;52.992;8.856;2023-01-06T00:12:48;37.90;;;13.70;;
31206;SDS011;17834;52.992;8.856;2023-01-06T00:15:15;42.40;;;14.50;;
31206;SDS011;17834;52.992;8.856;2023-01-06T00:17:41;39.00;;;14.73;;
31206;SDS011;17834;52.992;8.856;2023-01-06T00:20:07;41.83;;;14.57;;
31206;SDS011;17834;52.992;8.856;2023-01-06T00:22:33;41.17;;;14.10;;
31206;SDS011;17834;52.992;8.856;2023-01-06T00:24:59;48.60;;;14.90;;
31206;SDS011;17834;52.992;8.856;2023-01-06T00:27:25;42.88;;;14.40;;
31206;SDS011;17834;52.992;8.856;2023-01-06T00:29:51;47.50;;;16.45;;
31206;SDS011;17834;52.992;8.856;2023-01-06T00:32:17;42.20;;;15.65;;
31206;SDS011;17834;52.992;8.856;2023-01-06T00:34:43;39.10;;;13.88;;
31206;SDS011;17834;52.992;8.856;2023-01-06T00:37:09;44.22;;;14.80;;
31206;SDS011;17834;52.992;8.856;2023-01-06T00:39:35;42.03;;;13.75;;
31206;SDS011;17834;52.992;8.856;2023-01-06T00:42:01;56.47;;;17.10;;
31206;SDS011;17834;52.992;8.856;2023-01-06T00:44:28;42.13;;;16.02;;
31206;SDS011;17834;52.992;8.856;2023-01-06T00:46:54;51.13;;;15.02;;
31206;SDS011;17834;52.992;8.856;2023-01-06T00:49:20;45.80;;;16.08;;
31206;SDS011;17834;52.992;8.856;2023-01-06T00:51:46;41.30;;;15.65;;
31206;SDS011;17834;52.992;8.856;2023-01-06T00:54:13;47.90;;;16.75;;
31206;SDS011;17834;52.992;8.856;2023-01-06T00:56:40;44.92;;;15.75;;
31206;SDS011;17834;52.992;8.856;2023-01-06T00:59:06;47.80;;;15.85;;
31206;SDS011;17834;52.992;8.856;2023-01-06T01:01:33;46.42;;;15.75;;
31206;SDS011;17834;52.992;8.856;2023-01-06T01:03:59;46.33;;;14.13;;
31206;SDS011;17834;52.992;8.856;2023-01-06T01:06:25;48.67;;;16.05;;
31206;SDS011;17834;52.992;8.856;2023-01-06T01:08:51;41.88;;;15.73;;
31206;SDS011;17834;52.992;8.856;2023-01-06T01:11:18;42.20;;;15.90;;
31206;SDS011;17834;52.992;8.856;2023-01-06T01:14:10;40.78;;;15.90;;
31206;SDS011;17834;52.992;8.856;2023-01-06T01:16:36;43.28;;;15.95;;
31206;SDS011;17834;52.992;8.856;2023-01-06T01:19:02;55.38;;;17.35;;
31206;SDS011;17834;52.992;8.856;2023-01-06T01:21:28;47.10;;;17.30;;
31206;SDS011;17834;52.992;8.856;2023-01-06T01:23:54;54.13;;;18.70;;
31206;SDS011;17834;52.992;8.856;2023-01-06T01:26:20;44.83;;;16.13;;
31206;SDS011;17834;52.992;8.856;2023-01-06T01:28:46;44.60;;;15.68;;
31206;SDS011;17834;52.992;8.856;2023-01-06T01:31:12;42.83;;;16.52;;
31206;SDS011;17834;52.992;8.856;2023-01-06T01:33:39;50.92;;;16.05;;
31206;SDS011;17834;52.992;8.856;2023-01-06T01:36:06;50.83;;;15.77;;
31206;SDS011;17834;52.992;8.856;2023-01-06T01:38:32;45.25;;;14.90;;
31206;SDS011;17834;52.992;8.856;2023-01-06T01:40:58;45.97;;;15.73;;
31206;SDS011;17834;52.992;8.856;2023-01-06T01:43:24;47.15;;;16.35;;
31206;SDS011;17834;52.992;8.856;2023-01-06T01:45:51;42.28;;;16.63;;
31206;SDS011;17834;52.992;8.856;2023-01-06T01:48:24;41.83;;;15.70;;
31206;SDS011;17834;52.992;8.856;2023-01-06T01:50:52;43.88;;;16.13;;
31206;SDS011;17834;52.992;8.856;2023-01-06T01:53:20;46.03;;;16.60;;
31206;SDS011;17834;52.992;8.856;2023-01-06T01:55:48;50.13;;;17.38;;
31206;SDS011;17834;52.992;8.856;2023-01-06T01:58:17;54.95;;;18.50;;
31206;SDS011;17834;52.992;8.856;2023-01-06T02:00:45;47.92;;;15.45;;
31206;SDS011;17834;52.992;8.856;2023-01-06T02:03:11;47.00;;;17.55;;
31206;SDS011;17834;52.992;8.856;2023-01-06T02:05:38;40.15;;;15.55;;
31206;SDS011;17834;52.992;8.856;2023-01-06T02:08:12;44.15;;;15.82;;
31206;SDS011;17834;52.992;8.856;2023-01-06T02:10:39;43.45;;;15.20;;
31206;SDS011;17834;52.992;8.856;2023-01-06T02:13:05;42.10;;;15.40;;
31206;SDS011;17834;52.992;8.856;2023-01-06T02:15:31;38.75;;;16.10;;
31206;SDS011;17834;52.992;8.856;2023-01-06T02:23:24;35.00;;;14.32;;
31206;SDS011;17834;52.992;8.856;2023-01-06T02:28:29;43.22;;;14.90;;
31206;SDS011;17834;52.992;8.856;2023-01-06T02:33:44;35.38;;;13.50;;
31206;SDS011;17834;52.992;8.856;2023-01-06T02:36:15;31.48;;;11.73;;
31206;SDS011;17834;52.992;8.856;2023-01-06T02:38:48;27.13;;;11.57;;
31206;SDS011;17834;52.992;8.856;2023-01-06T02:46:37;28.92;;;11.70;;
31206;SDS011;17834;52.992;8.856;2023-01-06T02:54:27;27.83;;;11.35;;
31206;SDS011;17834;52.992;8.856;2023-01-06T02:57:15;36.88;;;12.10;;
31206;SDS011;17834;52.992;8.856;2023-01-06T02:59:45;31.17;;;12.50;;
31206;SDS011;17834;52.992;8.856;2023-01-06T03:02:13;32.58;;;12.65;;
31206;SDS011;17834;52.992;8.856;2023-01-06T03:04:42;28.13;;;12.10;;
31206;SDS011;17834;52.992;8.856;2023-01-06T03:07:10;30.25;;;12.38;;
31206;SDS011;17834;52.992;8.856;2023-01-06T03:09:37;30.90;;;12.93;;
31206;SDS011;17834;52.992;8.856;2023-01-06T03:12:07;30.98;;;11.82;;
31206;SDS011;17834;52.992;8.856;2023-01-06T03:14:38;32.55;;;12.32;;
31206;SDS011;17834;52.992;8.856;2023-01-06T03:17:05;28.50;;;11.75;;
31206;SDS011;17834;52.992;8.856;2023-01-06T03:19:31;30.45;;;11.93;;
31206;SDS011;17834;52.992;8.856;2023-01-06T03:21:58;27.05;;;11.65;;
31206;SDS011;17834;52.992;8.856;2023-01-06T03:24:25;29.95;;;12.07;;
31206;SDS011;17834;52.992;8.856;2023-01-06T03:26:51;28.98;;;11.30;;
31206;SDS011;17834;52.992;8.856;2023-01-06T03:29:18;27.80;;;11.43;;
31206;SDS011;17834;52.992;8.856;2023-01-06T03:34:42;26.58;;;11.15;;
31206;SDS011;17834;52.992;8.856;2023-01-06T03:39:42;24.60;;;9.75;;
31206;SDS011;17834;52.992;8.856;2023-01-06T03:47:36;23.98;;;9.93;;
31206;SDS011;17834;52.992;8.856;2023-01-06T03:50:26;27.25;;;9.43;;
31206;SDS011;17834;52.992;8.856;2023-01-06T03:55:16;23.05;;;8.32;;
31206;SDS011;17834;52.992;8.856;2023-01-06T03:57:45;18.83;;;7.93;;
31206;SDS011;17834;52.992;8.856;2023-01-06T04:00:13;19.55;;;7.75;;
31206;SDS011;17834;52.992;8.856;2023-01-06T04:02:40;20.95;;;8.52;;
31206;SDS011;17834;52.992;8.856;2023-01-06T04:05:10;26.70;;;7.95;;
31206;SDS011;17834;52.992;8.856;2023-01-06T04:07:37;16.90;;;7.55;;
31206;SDS011;17834;52.992;8.856;2023-01-06T04:10:05;21.08;;;8.50;;
31206;SDS011;17834;52.992;8.856;2023-01-06T04:12:31;15.90;;;7.20;;
31206;SDS011;17834;52.992;8.856;2023-01-06T04:15:12;18.08;;;8.05;;
31206;SDS011;17834;52.992;8.856;2023-01-06T04:17:40;19.13;;;8.30;;
31206;SDS011;17834;52.992;8.856;2023-01-06T04:20:07;15.63;;;7.80;;
31206;SDS011;17834;52.992;8.856;2023-01-06T04:22:34;18.70;;;7.90;;
31206;SDS011;17834;52.992;8.856;2023-01-06T04:25:00;16.42;;;8.30;;
31206;SDS011;17834;52.992;8.856;2023-01-06T04:27:26;18.08;;;8.40;;
31206;SDS011;17834;52.992;8.856;2023-01-06T04:29:52;19.42;;;9.18;;
31206;SDS011;17834;52.992;8.856;2023-01-06T04:32:18;20.55;;;9.07;;
31206;SDS011;17834;52.992;8.856;2023-01-06T04:34:44;17.00;;;8.40;;
31206;SDS011;17834;52.992;8.856;2023-01-06T04:37:10;18.83;;;9.93;;
31206;SDS011;17834;52.992;8.856;2023-01-06T04:39:36;23.05;;;8.63;;
31206;SDS011;17834;52.992;8.856;2023-01-06T04:42:02;17.15;;;9.02;;
31206;SDS011;17834;52.992;8.856;2023-01-06T04:44:28;22.25;;;10.77;;
31206;SDS011;17834;52.992;8.856;2023-01-06T04:46:54;26.08;;;10.30;;
31206;SDS011;17834;52.992;8.856;2023-01-06T04:49:20;21.83;;;10.05;;
31206;SDS011;17834;52.992;8.856;2023-01-06T04:51:46;21.55;;;9.93;;
31206;SDS011;17834;52.992;8.856;2023-01-06T04:54:12;20.67;;;10.43;;
31206;SDS011;17834;52.992;8.856;2023-01-06T04:56:38;18.02;;;9.60;;
31206;SDS011;17834;52.992;8.856;2023-01-06T04:59:04;23.17;;;11.05;;
31206;SDS011;17834;52.992;8.856;2023-01-06T05:01:30;22.83;;;10.48;;
31206;SDS011;17834;52.992;8.856;2023-01-06T05:03:56;25.27;;;10.27;;
31206;SDS011;17834;52.992;8.856;2023-01-06T05:06:22;19.98;;;9.73;;
31206;SDS011;17834;52.992;8.856;2023-01-06T05:08:48;23.27;;;9.50;;
31206;SDS011;17834;52.992;8.856;2023-01-06T05:11:18;20.90;;;8.70;;
31206;SDS011;17834;52.992;8.856;2023-01-06T05:13:44;22.25;;;8.77;;
31206;SDS011;17834;52.992;8.856;2023-01-06T05:18:36;20.42;;;9.60;;
31206;SDS011;17834;52.992;8.856;2023-01-06T05:21:02;24.65;;;10.57;;
31206;SDS011;17834;52.992;8.856;2023-01-06T05:23:28;21.35;;;9.50;;
31206;SDS011;17834;52.992;8.856;2023-01-06T05:25:54;16.77;;;8.38;;
31206;SDS011;17834;52.992;8.856;2023-01-06T05:28:20;18.85;;;8.63;;
31206;SDS011;17834;52.992;8.856;2023-01-06T05:30:46;19.70;;;9.07;;
31206;SDS011;17834;52.992;8.856;2023-01-06T05:33:12;17.83;;;8.52;;
31206;SDS011;17834;52.992;8.856;2023-01-06T05:35:38;16.42;;;9.05;;
31206;SDS011;17834;52.992;8.856;2023-01-06T05:38:05;15.63;;;7.78;;
31206;SDS011;17834;52.992;8.856;2023-01-06T05:40:31;18.33;;;8.23;;
31206;SDS011;17834;52.992;8.856;2023-01-06T05:42:56;16.02;;;8.25;;
31206;SDS011;17834;52.992;8.856;2023-01-06T05:45:23;14.43;;;7.78;;
31206;SDS011;17834;52.992;8.856;2023-01-06T05:47:49;15.90;;;8.43;;
31206;SDS011;17834;52.992;8.856;2023-01-06T05:50:15;16.30;;;6.13;;
31206;SDS011;17834;52.992;8.856;2023-01-06T05:52:42;18.45;;;7.15;;
31206;SDS011;17834;52.992;8.856;2023-01-06T05:55:08;14.13;;;7.28;;
31206;SDS011;17834;52.992;8.856;2023-01-06T05:57:34;14.77;;;6.57;;
31206;SDS011;17834;52.992;8.856;2023-01-06T06:00:01;13.00;;;6.88;;
31206;SDS011;17834;52.992;8.856;2023-01-06T06:02:27;20.02;;;7.15;;
31206;SDS011;17834;52.992;8.856;2023-01-06T06:04:53;15.70;;;8.20;;
31206;SDS011;17834;52.992;8.856;2023-01-06T06:07:19;12.68;;;6.20;;
31206;SDS011;17834;52.992;8.856;2023-01-06T06:09:45;12.93;;;6.30;;
31206;SDS011;17834;52.992;8.856;2023-01-06T06:12:11;14.80;;;6.00;;
31206;SDS011;17834;52.992;8.856;2023-01-06T06:14:37;11.65;;;5.72;;
31206;SDS011;17834;52.992;8.856;2023-01-06T06:17:03;16.95;;;6.13;;
31206;SDS011;17834;52.992;8.856;2023-01-06T06:19:29;13.93;;;6.03;;
31206;SDS011;17834;52.992;8.856;2023-01-06T06:21:55;12.18;;;6.03;;
31206;SDS011;17834;52.992;8.856;2023-01-06T06:24:21;14.13;;;6.50;;
31206;SDS011;17834;52.992;8.856;2023-01-06T06:26:47;12.65;;;6.05;;
31206;SDS011;17834;52.992;8.856;2023-01-06T06:29:13;12.65;;;6.22;;
31206;SDS011;17834;52.992;8.856;2023-01-06T06:31:39;13.48;;;6.20;;
31206;SDS011;17834;52.992;8.856;2023-01-06T06:34:05;11.68;;;6.45;;
31206;SDS011;17834;52.992;8.856;2023-01-06T06:36:30;8.25;;;4.88;;
31206;SDS011;17834;52.992;8.856;2023-01-06T06:38:56;9.90;;;5.25;;
31206;SDS011;17834;52.992;8.856;2023-01-06T06:41:23;9.23;;;4.88;;
31206;SDS011;17834;52.992;8.856;2023-01-06T06:43:49;9.60;;;4.78;;
31206;SDS011;17834;52.992;8.856;2023-01-06T06:46:16;9.40;;;4.25;;
31206;SDS011;17834;52.992;8.856;2023-01-06T06:48:42;9.07;;;4.18;;
31206;SDS011;17834;52.992;8.856;2023-01-06T06:51:09;7.20;;;3.90;;
31206;SDS011;17834;52.992;8.856;2023-01-06T06:53:35;6.93;;;4.40;;
31206;SDS011;17834;52.992;8.856;2023-01-06T06:56:02;7.32;;;3.92;;
31206;SDS011;17834;52.992;8.856;2023-01-06T06:58:28;7.50;;;3.85;;
31206;SDS011;17834;52.992;8.856;2023-01-06T07:00:54;12.90;;;4.50;;
31206;SDS011;17834;52.992;8.856;2023-01-06T07:03:21;5.95;;;3.47;;
31206;SDS011;17834;52.992;8.856;2023-01-06T07:05:47;6.40;;;3.60;;
31206;SDS011;17834;52.992;8.856;2023-01-06T07:08:13;7.78;;;3.47;;
31206;SDS011;17834;52.992;8.856;2023-01-06T07:10:39;4.88;;;2.80;;
31206;SDS011;17834;52.992;8.856;2023-01-06T07:13:05;4.82;;;2.70;;
31206;SDS011;17834;52.992;8.856;2023-01-06T07:15:37;8.57;;;3.03;;
31206;SDS011;17834;52.992;8.856;2023-01-06T07:18:04;8.27;;;3.28;;
31206;SDS011;17834;52.992;8.856;2023-01-06T07:20:31;5.45;;;2.70;;
31206;SDS011;17834;52.992;8.856;2023-01-06T07:22:57;6.30;;;3.28;;
31206;SDS011;17834;52.992;8.856;2023-01-06T07:25:23;6.75;;;2.70;;
31206;SDS011;17834;52.992;8.856;2023-01-06T07:27:52;6.43;;;2.83;;
31206;SDS011;17834;52.992;8.856;2023-01-06T07:30:19;9.88;;;2.90;;
31206;SDS011;17834;52.992;8.856;2023-01-06T07:32:45;7.72;;;3.28;;
31206;SDS011;17834;52.992;8.856;2023-01-06T07:35:11;6.05;;;3.42;;
31206;SDS011;17834;52.992;8.856;2023-01-06T07:37:37;5.72;;;3.00;;
31206;SDS011;17834;52.992;8.856;2023-01-06T07:40:03;6.80;;;3.17;;
31206;SDS011;17834;52.992;8.856;2023-01-06T07:42:29;8.48;;;3.17;;
31206;SDS011;17834;52.992;8.856;2023-01-06T07:44:55;10.63;;;3.53;;
31206;SDS011;17834;52.992;8.856;2023-01-06T07:47:21;9.35;;;3.50;;
31206;SDS011;17834;52.992;8.856;2023-01-06T07:49:47;6.45;;;3.05;;
31206;SDS011;17834;52.992;8.856;2023-01-06T07:52:13;5.95;;;3.50;;
31206;SDS011;17834;52.992;8.856;2023-01-06T07:54:39;6.63;;;3.10;;
31206;SDS011;17834;52.992;8.856;2023-01-06T07:57:05;4.95;;;3.28;;
31206;SDS011;17834;52.992;8.856;2023-01-06T07:59:31;8.05;;;3.17;;
31206;SDS011;17834;52.992;8.856;2023-01-06T08:01:57;6.35;;;3.15;;
31206;SDS011;17834;52.992;8.856;2023-01-06T08:04:23;7.80;;;3.50;;
31206;SDS011;17834;52.992;8.856;2023-01-06T08:06:49;8.38;;;3.08;;
31206;SDS011;17834;52.992;8.856;2023-01-06T08:09:15;8.25;;;3.78;;
31206;SDS011;17834;52.992;8.856;2023-01-06T08:11:41;7.28;;;2.92;;
31206;SDS011;17834;52.992;8.856;2023-01-06T08:14:07;7.07;;;2.95;;
31206;SDS011;17834;52.992;8.856;2023-01-06T08:16:33;8.82;;;2.92;;
31206;SDS011;17834;52.992;8.856;2023-01-06T08:18:59;5.85;;;3.10;;
31206;SDS011;17834;52.992;8.856;2023-01-06T08:21:25;5.20;;;2.47;;
31206;SDS011;17834;52.992;8.856;2023-01-06T08:23:51;6.03;;;2.75;;
31206;SDS011;17834;52.992;8.856;2023-01-06T08:26:17;5.18;;;2.88;;
31206;SDS011;17834;52.992;8.856;2023-01-06T08:28:45;6.85;;;2.90;;
31206;SDS011;17834;52.992;8.856;2023-01-06T08:31:12;6.93;;;3.33;;
31206;SDS011;17834;52.992;8.856;2023-01-06T08:33:39;5.32;;;3.45;;
31206;SDS011;17834;52.992;8.856;2023-01-06T08:36:05;6.38;;;3.50;;
31206;SDS011;17834;52.992;8.856;2023-01-06T08:38:32;8.50;;;3.35;;
31206;SDS011;17834;52.992;8.856;2023-01-06T08:40:58;6.68;;;3.42;;
31206;SDS011;17834;52.992;8.856;2023-01-06T08:43:25;6.53;;;3.60;;
31206;SDS011;17834;52.992;8.856;2023-01-06T08:45:51;6.88;;;3.55;;
31206;SDS011;17834;52.992;8.856;2023-01-06T08:48:17;5.85;;;3.63;;
31206;SDS011;17834;52.992;8.856;2023-01-06T08:50:44;8.43;;;3.90;;
31206;SDS011;17834;52.992;8.856;2023-01-06T08:53:10;6.93;;;3.53;;
31206;SDS011;17834;52.992;8.856;2023-01-06T08:55:37;6.47;;;4.13;;
31206;SDS011;17834;52.992;8.856;2023-01-06T08:58:03;8.23;;;4.15;;
31206;SDS011;17834;52.992;8.856;2023-01-06T09:00:29;9.63;;;4.28;;
31206;SDS011;17834;52.992;8.856;2023-01-06T09:02:55;7.25;;;3.97;;
31206;SDS011;17834;52.992;8.856;2023-01-06T09:05:21;7.60;;;4.15;;
31206;SDS011;17834;52.992;8.856;2023-01-06T09:07:47;5.00;;;3.40;;
31206;SDS011;17834;52.992;8.856;2023-01-06T09:10:16;7.22;;;4.13;;
31206;SDS011;17834;52.992;8.856;2023-01-06T09:12:43;7.35;;;3.88;;
31206;SDS011;17834;52.992;8.856;2023-01-06T09:15:09;7.88;;;4.05;;
31206;SDS011;17834;52.992;8.856;2023-01-06T09:17:35;5.78;;;3.60;;
31206;SDS011;17834;52.992;8.856;2023-01-06T09:20:01;5.78;;;3.28;;
31206;SDS011;17834;52.992;8.856;2023-01-06T09:22:27;4.22;;;3.17;;
31206;SDS011;17834;52.992;8.856;2023-01-06T09:24:53;8.27;;;3.45;;
31206;SDS011;17834;52.992;8.856;2023-01-06T09:27:18;6.85;;;3.53;;
31206;SDS011;17834;52.992;8.856;2023-01-06T09:29:44;9.43;;;3.65;;
31206;SDS011;17834;52.992;8.856;2023-01-06T09:32:10;5.05;;;3.03;;
31206;SDS011;17834;52.992;8.856;2023-01-06T09:34:36;6.85;;;3.45;;
31206;SDS011;17834;52.992;8.856;2023-01-06T09:37:02;5.00;;;3.22;;
31206;SDS011;17834;52.992;8.856;2023-01-06T09:39:29;5.93;;;3.00;;
31206;SDS011;17834;52.992;8.856;2023-01-06T09:46:50;3.83;;;2.60;;
31206;SDS011;17834;52.992;8.856;2023-01-06T09:49:25;3.75;;;2.45;;
31206;SDS011;17834;52.992;8.856;2023-01-06T09:51:52;5.40;;;2.83;;
31206;SDS011;17834;52.992;8.856;2023-01-06T09:54:27;4.68;;;2.75;;
31206;SDS011;17834;52.992;8.856;2023-01-06T09:56:59;6.72;;;2.90;;
31206;SDS011;17834;52.992;8.856;2023-01-06T09:59:27;5.63;;;3.08;;
31206;SDS011;17834;52.992;8.856;2023-01-06T10:01:55;5.45;;;3.22;;
31206;SDS011;17834;52.992;8.856;2023-01-06T10:04:27;4.32;;;2.83;;
31206;SDS011;17834;52.992;8.856;2023-01-06T10:09:21;5.93;;;3.17;;
31206;SDS011;17834;52.992;8.856;2023-01-06T10:11:53;4.18;;;2.80;;
31206;SDS011;17834;52.992;8.856;2023-01-06T10:14:24;4.00;;;2.80;;
31206;SDS011;17834;52.992;8.856;2023-01-06T10:19:43;4.25;;;2.72;;
31206;SDS011;17834;52.992;8.856;2023-01-06T10:27:15;3.83;;;2.58;;
31206;SDS011;17834;52.992;8.856;2023-01-06T10:29:45;3.63;;;2.40;;
31206;SDS011;17834;52.992;8.856;2023-01-06T10:32:14;4.72;;;2.63;;
31206;SDS011;17834;52.992;8.856;2023-01-06T10:34:40;5.65;;;2.55;;
31206;SDS011;17834;52.992;8.856;2023-01-06T10:39:35;3.03;;;2.33;;
31206;SDS011;17834;52.992;8.856;2023-01-06T10:45:06;4.15;;;1.95;;
31206;SDS011;17834;52.992;8.856;2023-01-06T10:47:35;2.72;;;1.95;;
31206;SDS011;17834;52.992;8.856;2023-01-06T10:50:02;3.78;;;1.85;;
31206;SDS011;17834;52.992;8.856;2023-01-06T10:52:28;2.90;;;1.95;;
31206;SDS011;17834;52.992;8.856;2023-01-06T10:54:55;4.15;;;1.70;;
31206;SDS011;17834;52.992;8.856;2023-01-06T10:57:26;3.05;;;1.73;;
31206;SDS011;17834;52.992;8.856;2023-01-06T11:00:14;4.75;;;1.50;;
31206;SDS011;17834;52.992;8.856;2023-01-06T11:03:22;1.63;;;1.07;;
31206;SDS011;17834;52.992;8.856;2023-01-06T11:05:30;3.40;;;1.67;;
31206;SDS011;17834;52.992;8.856;2023-01-06T11:07:57;1.90;;;1.20;;
31206;SDS011;17834;52.992;8.856;2023-01-06T11:10:32;2.03;;;1.30;;
31206;SDS011;17834;52.992;8.856;2023-01-06T11:12:59;4.00;;;1.42;;
31206;SDS011;17834;52.992;8.856;2023-01-06T11:15:37;4.00;;;1.58;;
31206;SDS011;17834;52.992;8.856;2023-01-06T11:18:04;3.92;;;1.35;;
31206;SDS011;17834;52.992;8.856;2023-01-06T11:20:31;2.28;;;1.27;;
31206;SDS011;17834;52.992;8.856;2023-01-06T11:23:20;5.43;;;1.60;;
31206;SDS011;17834;52.992;8.856;2023-01-06T11:28:16;2.10;;;1.10;;
31206;SDS011;17834;52.992;8.856;2023-01-06T11:30:50;2.25;;;1.00;;
31206;SDS011;17834;52.992;8.856;2023-01-06T11:33:21;3.38;;;1.00;;
31206;SDS011;17834;52.992;8.856;2023-01-06T11:35:48;5.40;;;1.27;;
31206;SDS011;17834;52.992;8.856;2023-01-06T11:38:15;3.65;;;0.80;;
31206;SDS011;17834;52.992;8.856;2023-01-06T11:40:42;6.45;;;0.82;;
31206;SDS011;17834;52.992;8.856;2023-01-06T11:43:16;2.40;;;1.10;;
31206;SDS011;17834;52.992;8.856;2023-01-06T11:45:46;2.08;;;0.75;;
31206;SDS011;17834;52.992;8.856;2023-01-06T11:50:38;2.17;;;0.95;;
31206;SDS011;17834;52.992;8.856;2023-01-06T11:53:14;1.95;;;1.15;;
31206;SDS011;17834;52.992;8.856;2023-01-06T11:55:41;5.38;;;0.93;;
31206;SDS011;17834;52.992;8.856;2023-01-06T11:58:17;3.90;;;0.80;;
31206;SDS011;17834;52.992;8.856;2023-01-06T12:08:23;3.15;;;0.85;;
31206;SDS011;17834;52.992;8.856;2023-01-06T12:10:57;5.32;;;0.88;;
31206;SDS011;17834;52.992;8.856;2023-01-06T12:13:25;2.40;;;1.13;;
31206;SDS011;17834;52.992;8.856;2023-01-06T12:15:55;2.40;;;0.90;;
31206;SDS011;17834;52.992;8.856;2023-01-06T12:18:23;3.13;;;0.75;;
31206;SDS011;17834;52.992;8.856;2023-01-06T12:20:51;6.68;;;1.13;;
31206;SDS011;17834;52.992;8.856;2023-01-06T12:23:19;5.95;;;0.95;;
31206;SDS011;17834;52.992;8.856;2023-01-06T12:25:47;3.65;;;0.93;;
31206;SDS011;17834;52.992;8.856;2023-01-06T12:33:25;7.13;;;2.17;;
31206;SDS011;17834;52.992;8.856;2023-01-06T12:35:53;4.70;;;1.08;;
31206;SDS011;17834;52.992;8.856;2023-01-06T12:40:57;7.18;;;1.10;;
31206;SDS011;17834;52.992;8.856;2023-01-06T12:43:27;2.28;;;1.05;;
31206;SDS011;17834;52.992;8.856;2023-01-06T12:45:55;1.48;;;0.73;;
31206;SDS011;17834;52.992;8.856;2023-01-06T12:48:32;4.35;;;0.95;;
31206;SDS011;17834;52.992;8.856;2023-01-06T12:51:08;3.78;;;0.98;;
31206;SDS011;17834;52.992;8.856;2023-01-06T12:53:38;1.77;;;0.77;;
31206;SDS011;17834;52.992;8.856;2023-01-06T13:01:19;3.75;;;0.70;;
31206;SDS011;17834;52.992;8.856;2023-01-06T13:06:43;5.75;;;0.95;;
31206;SDS011;17834;52.992;8.856;2023-01-06T13:22:39;3.65;;;1.05;;
31206;SDS011;17834;52.992;8.856;2023-01-06T13:30:24;5.03;;;1.08;;
31206;SDS011;17834;52.992;8.856;2023-01-06T13:33:02;4.22;;;1.33;;
31206;SDS011;17834;52.992;8.856;2023-01-06T13:35:38;2.83;;;1.17;;
31206;SDS011;17834;52.992;8.856;2023-01-06T13:40:56;3.60;;;1.00;;
31206;SDS011;17834;52.992;8.856;2023-01-06T13:43:26;2.53;;;0.77;;
31206;SDS011;17834;52.992;8.856;2023-01-06T13:45:54;4.25;;;1.30;;
31206;SDS011;17834;52.992;8.856;2023-01-06T13:48:24;6.45;;;1.45;;
31206;SDS011;17834;52.992;8.856;2023-01-06T13:50:51;3.85;;;1.00;;
31206;SDS011;17834;52.992;8.856;2023-01-06T13:53:18;5.88;;;1.17;;
31206;SDS011;17834;52.992;8.856;2023-01-06T13:55:45;6.00;;;1.77;;
31206;SDS011;17834;52.992;8.856;2023-01-06T14:01:29;5.82;;;1.05;;
31206;SDS011;17834;52.992;8.856;2023-01-06T14:04:42;10.32;;;1.65;;
31206;SDS011;17834;52.992;8.856;2023-01-06T14:06:44;8.55;;;1.30;;
31206;SDS011;17834;52.992;8.856;2023-01-06T14:09:14;4.10;;;1.17;;
31206;SDS011;17834;52.992;8.856;2023-01-06T14:11:41;7.20;;;1.30;;
31206;SDS011;17834;52.992;8.856;2023-01-06T14:14:21;7.50;;;1.35;;
31206;SDS011;17834;52.992;8.856;2023-01-06T14:16:52;7.78;;;1.20;;
31206;SDS011;17834;52.992;8.856;2023-01-06T14:19:35;6.93;;;1.65;;
31206;SDS011;17834;52.992;8.856;2023-01-06T14:22:12;8.27;;;1.52;;
31206;SDS011;17834;52.992;8.856;2023-01-06T14:24:40;4.53;;;1.40;;
31206;SDS011;17834;52.992;8.856;2023-01-06T14:27:09;5.20;;;1.45;;
31206;SDS011;17834;52.992;8.856;2023-01-06T14:32:09;5.38;;;1.30;;
31206;SDS011;17834;52.992;8.856;2023-01-06T14:34:36;7.32;;;1.20;;
31206;SDS011;17834;52.992;8.856;2023-01-06T14:37:03;10.48;;;1.77;;
31206;SDS011;17834;52.992;8.856;2023-01-06T14:39:30;3.88;;;1.50;;
31206;SDS011;17834;52.992;8.856;2023-01-06T14:42:01;5.40;;;1.48;;
31206;SDS011;17834;52.992;8.856;2023-01-06T14:44:45;2.13;;;1.05;;
31206;SDS011;17834;52.992;8.856;2023-01-06T14:47:19;5.43;;;0.93;;
31206;SDS011;17834;52.992;8.856;2023-01-06T14:49:53;7.03;;;2.03;;
31206;SDS011;17834;52.992;8.856;2023-01-06T14:52:33;4.13;;;1.52;;
31206;SDS011;17834;52.992;8.856;2023-01-06T14:55:00;4.28;;;1.63;;
31206;SDS011;17834;52.992;8.856;2023-01-06T14:57:33;6.05;;;1.23;;
31206;SDS011;17834;52.992;8.856;2023-01-06T15:02:45;6.18;;;1.40;;
31206;SDS011;17834;52.992;8.856;2023-01-06T15:05:19;5.18;;;1.80;;
31206;SDS011;17834;52.992;8.856;2023-01-06T15:07:59;4.20;;;1.42;;
31206;SDS011;17834;52.992;8.856;2023-01-06T15:10:27;6.03;;;1.25;;
31206;SDS011;17834;52.992;8.856;2023-01-06T15:12:53;5.60;;;1.83;;
31206;SDS011;17834;52.992;8.856;2023-01-06T15:15:30;5.57;;;1.15;;
31206;SDS011;17834;52.992;8.856;2023-01-06T15:17:57;7.55;;;1.30;;
31206;SDS011;17834;52.992;8.856;2023-01-06T15:20:27;5.90;;;1.30;;
31206;SDS011;17834;52.992;8.856;2023-01-06T15:22:54;4.25;;;0.88;;
31206;SDS011;17834;52.992;8.856;2023-01-06T15:25:21;5.25;;;1.30;;
31206;SDS011;17834;52.992;8.856;2023-01-06T15:27:48;6.28;;;1.20;;
31206;SDS011;17834;52.992;8.856;2023-01-06T15:30:15;5.25;;;1.42;;
31206;SDS011;17834;52.992;8.856;2023-01-06T15:32:41;8.48;;;1.25;;
31206;SDS011;17834;52.992;8.856;2023-01-06T15:35:08;10.25;;;2.10;;
31206;SDS011;17834;52.992;8.856;2023-01-06T15:37:36;3.10;;;0.98;;
31206;SDS011;17834;52.992;8.856;2023-01-06T15:40:03;4.55;;;1.10;;
31206;SDS011;17834;52.992;8.856;2023-01-06T15:42:29;6.78;;;1.60;;
31206;SDS011;17834;52.992;8.856;2023-01-06T15:45:00;7.03;;;1.65;;
31206;SDS011;17834;52.992;8.856;2023-01-06T15:47:27;8.43;;;1.60;;
31206;SDS011;17834;52.992;8.856;2023-01-06T15:49:54;7.03;;;1.80;;
31206;SDS011;17834;52.992;8.856;2023-01-06T15:52:26;3.90;;;1.50;;
31206;SDS011;17834;52.992;8.856;2023-01-06T15:54:53;5.70;;;1.40;;
31206;SDS011;17834;52.992;8.856;2023-01-06T15:57:20;7.32;;;1.45;;
31206;SDS011;17834;52.992;8.856;2023-01-06T15:59:51;7.90;;;1.70;;
31206;SDS011;17834;52.992;8.856;2023-01-06T16:02:18;4.00;;;1.30;;
31206;SDS011;17834;52.992;8.856;2023-01-06T16:04:45;3.40;;;1.02;;
31206;SDS011;17834;52.992;8.856;2023-01-06T16:07:32;4.28;;;1.17;;
31206;SDS011;17834;52.992;8.856;2023-01-06T16:09:59;2.95;;;1.15;;
31206;SDS011;17834;52.992;8.856;2023-01-06T16:12:25;4.47;;;1.15;;
31206;SDS011;17834;52.992;8.856;2023-01-06T16:14:51;10.55;;;2.05;;
31206;SDS011;17834;52.992;8.856;2023-01-06T16:17:31;4.50;;;1.05;;
31206;SDS011;17834;52.992;8.856;2023-01-06T16:19:59;3.50;;;1.15;;
31206;SDS011;17834;52.992;8.856;2023-01-06T16:22:36;5.25;;;1.30;;
31206;SDS011;17834;52.992;8.856;2023-01-06T16:25:04;5.40;;;1.60;;
31206;SDS011;17834;52.992;8.856;2023-01-06T16:27:30;6.00;;;1.40;;
31206;SDS011;17834;52.992;8.856;2023-01-06T16:30:17;2.53;;;1.17;;
31206;SDS011;17834;52.992;8.856;2023-01-06T16:32:44;6.53;;;1.40;;
31206;SDS011;17834;52.992;8.856;2023-01-06T16:35:20;7.55;;;1.40;;
31206;SDS011;17834;52.992;8.856;2023-01-06T16:37:47;4.95;;;1.35;;
31206;SDS011;17834;52.992;8.856;2023-01-06T16:40:14;4.15;;;2.03;;